sensor_id;sensor_type;location;lat;lon;timestamp;P1;durP1;ratioP1;P2;durP2;ratioP2
78968;SDS011;68369;51.050;17.018;2023-03-20T01:55:54;23.00;;;12.60;;
78968;SDS011;68369;51.050;17.018;2023-03-20T02:19:21;21.10;;;13.70;;
78968;SDS011;68369;51.050;17.018;2023-03-20T02:28:42;17.80;;;11.10;;
78968;SDS011;68369;51.050;17.018;2023-03-20T04:43:02;12.40;;;7.80;;
78968;SDS011;68369;51.050;17.018;2023-03-20T04:45:48;10.50;;;7.00;;
78968;SDS011;68369;51.050;17.018;2023-03-20T06:18:54;13.70;;;8.60;;
78968;SDS011;68369;51.050;17.018;2023-03-20T06:24:49;14.40;;;9.60;;
78968;SDS011;68369;51.050;17.018;2023-03-20T06:30:27;14.50;;;9.80;;
78968;SDS011;68369;51.050;17.018;2023-03-20T06:35:51;15.00;;;10.10;;
78968;SDS011;68369;51.050;17.018;2023-03-20T06:38:36;16.90;;;12.50;;
78968;SDS011;68369;51.050;17.018;2023-03-20T06:41:22;20.90;;;14.60;;
78968;SDS011;68369;51.050;17.018;2023-03-20T06:44:19;17.60;;;12.80;;
78968;SDS011;68369;51.050;17.018;2023-03-20T07:00:07;19.00;;;10.10;;
78968;SDS011;68369;51.050;17.018;2023-03-20T07:02:54;12.40;;;8.70;;
78968;SDS011;68369;51.050;17.018;2023-03-20T07:12:17;14.80;;;8.50;;
78968;SDS011;68369;51.050;17.018;2023-03-20T07:31:29;12.40;;;7.40;;
78968;SDS011;68369;51.050;17.018;2023-03-20T07:34:19;14.20;;;8.50;;
78968;SDS011;68369;51.050;17.018;2023-03-20T07:56:25;16.60;;;10.60;;
78968;SDS011;68369;51.050;17.018;2023-03-20T08:01:56;19.60;;;10.40;;
78968;SDS011;68369;51.050;17.018;2023-03-20T08:04:43;19.00;;;12.30;;
78968;SDS011;68369;51.050;17.018;2023-03-20T08:07:29;21.50;;;13.30;;
78968;SDS011;68369;51.050;17.018;2023-03-20T08:10:16;19.60;;;11.90;;
78968;SDS011;68369;51.050;17.018;2023-03-20T08:13:01;18.60;;;12.70;;
78968;SDS011;68369;51.050;17.018;2023-03-20T08:15:46;22.00;;;14.20;;
78968;SDS011;68369;51.050;17.018;2023-03-20T08:21:25;22.30;;;13.10;;
78968;SDS011;68369;51.050;17.018;2023-03-20T08:24:15;22.10;;;14.50;;
78968;SDS011;68369;51.050;17.018;2023-03-20T08:27:01;30.40;;;17.90;;
78968;SDS011;68369;51.050;17.018;2023-03-20T08:29:48;20.90;;;13.60;;
78968;SDS011;68369;51.050;17.018;2023-03-20T08:32:34;26.90;;;16.20;;
78968;SDS011;68369;51.050;17.018;2023-03-20T08:38:18;23.40;;;14.60;;
78968;SDS011;68369;51.050;17.018;2023-03-20T08:41:12;25.20;;;15.70;;
78968;SDS011;68369;51.050;17.018;2023-03-20T08:56:37;13.60;;;9.20;;
78968;SDS011;68369;51.050;17.018;2023-03-20T09:02:47;21.00;;;13.20;;
78968;SDS011;68369;51.050;17.018;2023-03-20T09:12:04;17.20;;;11.90;;
78968;SDS011;68369;51.050;17.018;2023-03-20T09:37:40;15.80;;;10.20;;
78968;SDS011;68369;51.050;17.018;2023-03-20T09:47:30;10.40;;;7.90;;
78968;SDS011;68369;51.050;17.018;2023-03-20T09:53:28;11.10;;;8.30;;
78968;SDS011;68369;51.050;17.018;2023-03-20T09:56:22;10.10;;;7.10;;
78968;SDS011;68369;51.050;17.018;2023-03-20T09:59:10;11.20;;;8.30;;
78968;SDS011;68369;51.050;17.018;2023-03-20T10:02:13;10.40;;;8.30;;
78968;SDS011;68369;51.050;17.018;2023-03-20T10:08:12;14.30;;;9.00;;
78968;SDS011;68369;51.050;17.018;2023-03-20T10:20:56;10.10;;;7.60;;
78968;SDS011;68369;51.050;17.018;2023-03-20T10:24:04;12.40;;;8.40;;
78968;SDS011;68369;51.050;17.018;2023-03-20T10:26:57;12.10;;;7.20;;
78968;SDS011;68369;51.050;17.018;2023-03-20T10:43:09;9.70;;;7.20;;
78968;SDS011;68369;51.050;17.018;2023-03-20T10:54:57;9.80;;;7.20;;
78968;SDS011;68369;51.050;17.018;2023-03-20T11:23:35;38.20;;;21.80;;
78968;SDS011;68369;51.050;17.018;2023-03-20T11:26:39;11.60;;;8.90;;
78968;SDS011;68369;51.050;17.018;2023-03-20T11:32:34;8.60;;;6.10;;
78968;SDS011;68369;51.050;17.018;2023-03-20T12:27:14;6.20;;;5.50;;
78968;SDS011;68369;51.050;17.018;2023-03-20T12:33:17;6.90;;;6.20;;
78968;SDS011;68369;51.050;17.018;2023-03-20T12:39:31;7.90;;;6.20;;
78968;SDS011;68369;51.050;17.018;2023-03-20T12:45:20;7.40;;;5.20;;
78968;SDS011;68369;51.050;17.018;2023-03-20T12:54:01;7.50;;;5.50;;
78968;SDS011;68369;51.050;17.018;2023-03-20T15:21:08;2.30;;;1.90;;
78968;SDS011;68369;51.050;17.018;2023-03-20T15:33:38;2.40;;;1.80;;
78968;SDS011;68369;51.050;17.018;2023-03-20T15:51:45;2.20;;;1.90;;
78968;SDS011;68369;51.050;17.018;2023-03-20T15:54:31;1.90;;;1.50;;
78968;SDS011;68369;51.050;17.018;2023-03-20T16:07:05;2.20;;;1.70;;
78968;SDS011;68369;51.050;17.018;2023-03-20T16:09:50;3.20;;;1.70;;
78968;SDS011;68369;51.050;17.018;2023-03-20T16:19:38;2.90;;;1.80;;
78968;SDS011;68369;51.050;17.018;2023-03-20T16:25:17;2.30;;;1.60;;
78968;SDS011;68369;51.050;17.018;2023-03-20T16:28:04;2.90;;;1.80;;
78968;SDS011;68369;51.050;17.018;2023-03-20T16:30:51;3.20;;;2.30;;
78968;SDS011;68369;51.050;17.018;2023-03-20T16:33:37;3.10;;;2.10;;
78968;SDS011;68369;51.050;17.018;2023-03-20T16:52:39;3.60;;;2.30;;
78968;SDS011;68369;51.050;17.018;2023-03-20T16:55:27;3.60;;;2.30;;
78968;SDS011;68369;51.050;17.018;2023-03-20T17:11:09;3.70;;;2.50;;
78968;SDS011;68369;51.050;17.018;2023-03-20T17:16:57;5.60;;;2.90;;
78968;SDS011;68369;51.050;17.018;2023-03-20T17:19:44;4.60;;;3.10;;
78968;SDS011;68369;51.050;17.018;2023-03-20T17:38:53;4.50;;;2.60;;
78968;SDS011;68369;51.050;17.018;2023-03-20T17:41:39;5.60;;;3.00;;
78968;SDS011;68369;51.050;17.018;2023-03-20T17:44:23;4.30;;;2.80;;
78968;SDS011;68369;51.050;17.018;2023-03-20T17:50:10;6.50;;;3.60;;
78968;SDS011;68369;51.050;17.018;2023-03-20T17:59:09;6.60;;;4.40;;
78968;SDS011;68369;51.050;17.018;2023-03-20T18:01:57;5.90;;;3.50;;
78968;SDS011;68369;51.050;17.018;2023-03-20T18:11:07;6.90;;;3.90;;
78968;SDS011;68369;51.050;17.018;2023-03-20T18:26:32;6.90;;;4.40;;
78968;SDS011;68369;51.050;17.018;2023-03-20T18:29:20;8.00;;;4.90;;
78968;SDS011;68369;51.050;17.018;2023-03-20T18:32:05;8.50;;;5.10;;
78968;SDS011;68369;51.050;17.018;2023-03-20T18:34:51;10.40;;;5.50;;
78968;SDS011;68369;51.050;17.018;2023-03-20T18:37:37;9.30;;;5.10;;
78968;SDS011;68369;51.050;17.018;2023-03-20T18:46:18;7.60;;;4.30;;
78968;SDS011;68369;51.050;17.018;2023-03-20T18:51:59;6.30;;;4.30;;
78968;SDS011;68369;51.050;17.018;2023-03-20T18:54:44;7.10;;;5.30;;
78968;SDS011;68369;51.050;17.018;2023-03-20T18:57:29;6.20;;;4.30;;
78968;SDS011;68369;51.050;17.018;2023-03-20T19:06:02;7.10;;;4.70;;
78968;SDS011;68369;51.050;17.018;2023-03-20T19:08:48;8.50;;;5.80;;
78968;SDS011;68369;51.050;17.018;2023-03-20T19:11:34;7.70;;;4.80;;
78968;SDS011;68369;51.050;17.018;2023-03-20T19:14:19;8.60;;;4.90;;
78968;SDS011;68369;51.050;17.018;2023-03-20T19:23:05;9.10;;;5.60;;
78968;SDS011;68369;51.050;17.018;2023-03-20T19:29:03;9.50;;;5.50;;
78968;SDS011;68369;51.050;17.018;2023-03-20T19:40:57;11.10;;;5.50;;
78968;SDS011;68369;51.050;17.018;2023-03-20T19:50:40;11.60;;;6.80;;
78968;SDS011;68369;51.050;17.018;2023-03-20T20:12:15;13.50;;;7.10;;
78968;SDS011;68369;51.050;17.018;2023-03-20T20:17:54;12.20;;;8.10;;
78968;SDS011;68369;51.050;17.018;2023-03-20T20:20:40;12.90;;;7.70;;
78968;SDS011;68369;51.050;17.018;2023-03-20T20:27:02;13.40;;;9.00;;
78968;SDS011;68369;51.050;17.018;2023-03-20T20:30:03;15.70;;;9.40;;
78968;SDS011;68369;51.050;17.018;2023-03-20T20:42:41;19.40;;;10.70;;
78968;SDS011;68369;51.050;17.018;2023-03-20T20:52:07;20.00;;;10.60;;
78968;SDS011;68369;51.050;17.018;2023-03-20T20:58:23;19.30;;;11.40;;
78968;SDS011;68369;51.050;17.018;2023-03-20T21:01:10;18.10;;;11.40;;
78968;SDS011;68369;51.050;17.018;2023-03-20T21:03:56;21.50;;;12.10;;
78968;SDS011;68369;51.050;17.018;2023-03-20T21:06:42;23.60;;;12.10;;
78968;SDS011;68369;51.050;17.018;2023-03-20T21:09:47;21.50;;;11.60;;
78968;SDS011;68369;51.050;17.018;2023-03-20T21:15:11;21.30;;;11.70;;
78968;SDS011;68369;51.050;17.018;2023-03-20T21:17:57;19.00;;;10.40;;
78968;SDS011;68369;51.050;17.018;2023-03-20T21:32:56;17.00;;;9.80;;
78968;SDS011;68369;51.050;17.018;2023-03-20T21:38:50;21.00;;;11.40;;
78968;SDS011;68369;51.050;17.018;2023-03-20T21:48:24;18.00;;;10.30;;
78968;SDS011;68369;51.050;17.018;2023-03-20T21:54:25;14.10;;;8.20;;
78968;SDS011;68369;51.050;17.018;2023-03-20T21:57:32;16.00;;;8.90;;
78968;SDS011;68369;51.050;17.018;2023-03-20T22:00:38;19.50;;;10.90;;
78968;SDS011;68369;51.050;17.018;2023-03-20T22:03:44;16.70;;;10.30;;
78968;SDS011;68369;51.050;17.018;2023-03-20T22:06:49;19.40;;;10.60;;
78968;SDS011;68369;51.050;17.018;2023-03-20T22:12:50;16.00;;;8.20;;
78968;SDS011;68369;51.050;17.018;2023-03-20T22:15:56;16.80;;;10.20;;
78968;SDS011;68369;51.050;17.018;2023-03-20T22:22:32;16.90;;;9.70;;
78968;SDS011;68369;51.050;17.018;2023-03-20T22:25:37;18.00;;;9.80;;
78968;SDS011;68369;51.050;17.018;2023-03-20T22:28:43;17.70;;;9.70;;
78968;SDS011;68369;51.050;17.018;2023-03-20T22:31:48;15.40;;;8.40;;
78968;SDS011;68369;51.050;17.018;2023-03-20T22:38:48;18.50;;;9.70;;
78968;SDS011;68369;51.050;17.018;2023-03-20T22:41:53;17.70;;;9.90;;
78968;SDS011;68369;51.050;17.018;2023-03-20T22:44:58;18.90;;;10.10;;
78968;SDS011;68369;51.050;17.018;2023-03-20T22:54:15;18.50;;;10.00;;
78968;SDS011;68369;51.050;17.018;2023-03-20T22:59:50;19.70;;;11.70;;
78968;SDS011;68369;51.050;17.018;2023-03-20T23:05:38;21.80;;;11.90;;
78968;SDS011;68369;51.050;17.018;2023-03-20T23:08:25;20.10;;;11.10;;
78968;SDS011;68369;51.050;17.018;2023-03-20T23:13:58;17.50;;;11.30;;
78968;SDS011;68369;51.050;17.018;2023-03-20T23:16:44;28.80;;;14.70;;
78968;SDS011;68369;51.050;17.018;2023-03-20T23:19:29;21.70;;;13.50;;
78968;SDS011;68369;51.050;17.018;2023-03-20T23:22:29;23.70;;;14.40;;
78968;SDS011;68369;51.050;17.018;2023-03-20T23:28:21;18.50;;;12.30;;
78968;SDS011;68369;51.050;17.018;2023-03-20T23:31:09;20.30;;;11.20;;
78968;SDS011;68369;51.050;17.018;2023-03-20T23:34:01;24.00;;;13.70;;
78968;SDS011;68369;51.050;17.018;2023-03-20T23:36:46;24.50;;;14.10;;
78968;SDS011;68369;51.050;17.018;2023-03-20T23:39:31;22.70;;;13.60;;
78968;SDS011;68369;51.050;17.018;2023-03-20T23:42:16;24.60;;;13.90;;
78968;SDS011;68369;51.050;17.018;2023-03-20T23:45:14;21.60;;;13.50;;
78968;SDS011;68369;51.050;17.018;2023-03-20T23:48:06;22.60;;;13.00;;
78968;SDS011;68369;51.050;17.018;2023-03-20T23:50:52;21.80;;;13.00;;
78968;SDS011;68369;51.050;17.018;2023-03-20T23:56:48;25.20;;;14.90;;
78968;SDS011;68369;51.050;17.018;2023-03-20T23:59:34;24.60;;;15.70;;
